createdAt,value
2018-03-23T00:01:09.302Z,83.30
2018-03-23T00:03:36.230Z,83.50
2018-03-23T00:06:03.072Z,83.30
2018-03-23T00:08:30.052Z,83.50
2018-03-23T00:10:57.015Z,83.40
2018-03-23T00:13:23.901Z,83.30
2018-03-23T00:15:50.737Z,83.30
2018-03-23T00:18:17.611Z,83.40
2018-03-23T00:20:44.524Z,83.60
2018-03-23T00:23:11.389Z,83.80
2018-03-23T00:25:39.273Z,83.60
2018-03-23T00:28:06.240Z,83.60
2018-03-23T00:30:33.220Z,83.80
2018-03-23T00:33:00.070Z,83.70
2018-03-23T00:35:27.093Z,83.70
2018-03-23T00:37:53.953Z,83.50
2018-03-23T00:40:20.826Z,83.60
2018-03-23T00:42:47.668Z,83.70
2018-03-23T00:45:14.558Z,83.70
2018-03-23T00:50:14.814Z,83.70
2018-03-23T00:52:41.661Z,83.90
2018-03-23T00:55:08.623Z,83.90
2018-03-23T00:57:35.464Z,83.90
2018-03-23T01:00:02.336Z,84.20
2018-03-23T01:02:29.184Z,84.00
2018-03-23T01:04:56.149Z,84.20
2018-03-23T01:07:22.993Z,83.90
2018-03-23T01:09:49.983Z,83.70
2018-03-23T01:12:16.849Z,83.70
2018-03-23T01:14:43.720Z,83.70
2018-03-23T01:17:10.637Z,83.70
2018-03-23T01:19:37.605Z,84.40
2018-03-23T01:22:04.471Z,84.50
2018-03-23T01:24:31.526Z,84.70
2018-03-23T01:26:58.476Z,84.70
2018-03-23T01:29:25.349Z,84.70
2018-03-23T01:31:52.298Z,84.40
2018-03-23T01:34:19.140Z,84.30
2018-03-23T01:36:46.009Z,84.20
2018-03-23T01:39:12.871Z,84.10
2018-03-23T01:41:39.725Z,84.10
2018-03-23T01:44:06.598Z,84.00
2018-03-23T01:46:33.545Z,84.30
2018-03-23T01:49:00.410Z,84.40
2018-03-23T01:51:27.354Z,84.50
2018-03-23T01:53:54.223Z,84.70
2018-03-23T01:56:21.105Z,84.80
2018-03-23T01:58:48.033Z,84.50
2018-03-23T02:01:14.982Z,84.30
2018-03-23T02:03:41.834Z,84.00
2018-03-23T02:06:08.711Z,84.20
2018-03-23T02:08:35.657Z,84.20
2018-03-23T02:11:02.633Z,84.30
2018-03-23T02:13:29.608Z,84.40
2018-03-23T02:15:56.454Z,84.30
2018-03-23T02:18:23.376Z,84.20
2018-03-23T02:20:50.249Z,84.20
2018-03-23T02:23:17.133Z,84.10
2018-03-23T02:25:43.973Z,83.80
2018-03-23T02:28:10.927Z,83.70
2018-03-23T02:30:37.790Z,83.60
2018-03-23T02:33:04.737Z,83.60
2018-03-23T02:35:31.605Z,83.60
2018-03-23T02:37:58.461Z,83.60
2018-03-23T02:40:25.334Z,83.50
2018-03-23T02:42:52.262Z,83.60
2018-03-23T02:45:19.152Z,83.40
2018-03-23T02:47:46.001Z,83.70
2018-03-23T02:50:12.960Z,83.60
2018-03-23T02:52:39.824Z,83.90
2018-03-23T02:55:06.766Z,83.90
2018-03-23T02:57:33.634Z,84.00
2018-03-23T03:00:00.487Z,83.90
2018-03-23T03:02:27.425Z,84.00
2018-03-23T03:04:54.309Z,84.10
2018-03-23T03:07:21.248Z,83.90
2018-03-23T03:09:48.095Z,83.60
2018-03-23T03:12:14.974Z,83.40
2018-03-23T03:14:42.108Z,83.40
2018-03-23T03:17:09.341Z,83.80
2018-03-23T03:19:36.245Z,83.80
2018-03-23T03:22:03.100Z,83.70
2018-03-23T03:24:30.051Z,84.10
2018-03-23T03:26:57.018Z,84.00
2018-03-23T03:29:23.861Z,84.10
2018-03-23T03:31:50.830Z,84.20
2018-03-23T03:37:15.578Z,84.20
2018-03-23T03:39:42.440Z,84.00
2018-03-23T03:42:09.399Z,84.00
2018-03-23T03:44:36.269Z,84.10
2018-03-23T03:47:03.135Z,84.00
2018-03-23T03:49:30.058Z,83.80
2018-03-23T03:51:56.931Z,83.50
2018-03-23T03:54:23.794Z,83.80
2018-03-23T03:56:50.745Z,83.80
2018-03-23T03:59:17.600Z,83.70
2018-03-23T04:01:44.545Z,83.70
2018-03-23T04:04:11.420Z,83.90
2018-03-23T04:06:38.281Z,83.70
2018-03-23T04:09:05.146Z,83.70
2018-03-23T04:11:32.961Z,83.60
2018-03-23T04:14:00.235Z,83.60
2018-03-23T04:16:27.623Z,83.70
2018-03-23T04:18:54.873Z,84.00
2018-03-23T04:21:22.174Z,83.90
2018-03-23T04:23:49.133Z,83.90
2018-03-23T04:26:16.091Z,83.80
2018-03-23T04:28:43.038Z,83.50
2018-03-23T04:31:10.261Z,83.80
2018-03-23T04:33:37.578Z,83.60
2018-03-23T04:36:04.453Z,83.60
2018-03-23T04:38:31.398Z,83.40
2018-03-23T04:40:58.271Z,83.40
2018-03-23T04:43:25.221Z,83.40
2018-03-23T04:45:52.173Z,83.20
2018-03-23T04:48:19.041Z,83.50
2018-03-23T04:50:45.891Z,83.40
2018-03-23T04:53:12.764Z,83.50
2018-03-23T04:55:39.632Z,83.60
2018-03-23T04:58:06.563Z,83.30
2018-03-23T05:00:33.613Z,83.40
2018-03-23T05:03:00.459Z,83.50
2018-03-23T05:05:28.355Z,83.50
2018-03-23T05:07:55.217Z,83.30
2018-03-23T05:10:22.063Z,83.40
2018-03-23T05:12:49.025Z,83.40
2018-03-23T05:15:15.896Z,83.50
2018-03-23T05:17:42.743Z,83.50
2018-03-23T05:20:09.606Z,83.40
2018-03-23T05:22:36.589Z,83.40
2018-03-23T05:25:03.520Z,83.40
2018-03-23T05:27:30.365Z,83.40
2018-03-23T05:29:57.265Z,83.40
2018-03-23T05:32:24.193Z,83.40
2018-03-23T05:34:51.052Z,83.50
2018-03-23T05:37:18.014Z,83.40
2018-03-23T05:39:44.884Z,83.20
2018-03-23T05:42:11.734Z,83.40
2018-03-23T05:44:38.624Z,83.50
2018-03-23T05:47:05.554Z,83.30
2018-03-23T05:49:32.509Z,83.30
2018-03-23T05:51:59.461Z,83.10
2018-03-23T05:54:26.315Z,83.20
2018-03-23T05:56:53.177Z,83.30
2018-03-23T05:59:20.044Z,83.20
2018-03-23T06:01:46.904Z,83.50
2018-03-23T06:04:13.863Z,83.40
2018-03-23T06:06:40.744Z,83.40
2018-03-23T06:09:07.668Z,83.20
2018-03-23T06:11:34.521Z,83.30
2018-03-23T06:14:01.571Z,83.50
2018-03-23T06:16:28.456Z,83.20
2018-03-23T06:18:55.353Z,83.40
2018-03-23T06:21:22.604Z,82.80
2018-03-23T06:23:49.504Z,82.90
2018-03-23T06:26:16.752Z,83.00
2018-03-23T06:28:44.049Z,83.40
2018-03-23T06:31:10.918Z,83.40
2018-03-23T06:33:37.772Z,83.40
2018-03-23T06:36:04.721Z,83.00
2018-03-23T06:38:31.793Z,82.90
2018-03-23T06:40:58.648Z,82.90
2018-03-23T06:43:25.577Z,82.70
2018-03-23T06:45:52.445Z,82.80
2018-03-23T06:48:19.328Z,82.60
2018-03-23T06:50:46.204Z,82.70
2018-03-23T06:53:13.072Z,82.90
2018-03-23T06:55:39.936Z,82.80
2018-03-23T06:58:06.776Z,82.90
2018-03-23T07:00:33.718Z,82.70
2018-03-23T07:03:00.587Z,82.50
2018-03-23T07:05:27.608Z,82.70
2018-03-23T07:07:54.484Z,82.70
2018-03-23T07:10:21.449Z,82.60
2018-03-23T07:12:48.312Z,82.50
2018-03-23T07:15:15.197Z,82.40
2018-03-23T07:17:42.056Z,82.30
2018-03-23T07:20:09.316Z,82.70
2018-03-23T07:22:36.215Z,82.70
2018-03-23T07:25:03.101Z,82.70
2018-03-23T07:27:30.017Z,82.70
2018-03-23T07:29:57.256Z,82.80
2018-03-23T07:32:24.113Z,82.80
2018-03-23T07:34:51.028Z,82.90
2018-03-23T07:37:17.870Z,82.60
2018-03-23T07:39:44.749Z,82.90
2018-03-23T07:42:11.653Z,82.80
2018-03-23T07:44:38.968Z,83.00
2018-03-23T07:47:05.961Z,83.00
2018-03-23T07:49:32.823Z,82.70
2018-03-23T07:51:59.661Z,82.50
2018-03-23T07:54:26.528Z,82.60
2018-03-23T07:56:53.373Z,82.80
2018-03-23T07:59:20.308Z,83.00
2018-03-23T08:01:47.153Z,82.50
2018-03-23T08:04:14.038Z,82.70
2018-03-23T08:06:40.885Z,82.30
2018-03-23T08:09:07.735Z,82.30
2018-03-23T08:11:34.724Z,82.50
2018-03-23T08:14:01.769Z,82.50
2018-03-23T08:16:28.606Z,82.30
2018-03-23T08:18:55.460Z,82.10
2018-03-23T08:21:22.333Z,82.00
2018-03-23T08:23:49.376Z,82.10
2018-03-23T08:26:16.613Z,82.00
2018-03-23T08:28:43.861Z,81.90
2018-03-23T08:31:10.826Z,81.90
2018-03-23T08:33:37.723Z,81.30
2018-03-23T08:36:04.989Z,80.60
2018-03-23T08:38:31.836Z,80.70
2018-03-23T08:40:59.245Z,81.10
2018-03-23T08:43:26.119Z,81.10
2018-03-23T08:45:53.024Z,80.80
2018-03-23T08:48:20.265Z,80.00
2018-03-23T08:50:47.179Z,80.00
2018-03-23T08:53:14.066Z,79.70
2018-03-23T08:55:40.998Z,79.30
2018-03-23T08:58:07.952Z,79.30
2018-03-23T09:00:34.933Z,78.80
2018-03-23T09:03:01.813Z,78.70
2018-03-23T09:05:28.724Z,78.70
2018-03-23T09:07:55.587Z,77.90
2018-03-23T09:10:22.449Z,77.30
2018-03-23T09:12:49.303Z,77.50
2018-03-23T09:15:16.176Z,77.60
2018-03-23T09:17:43.021Z,77.90
2018-03-23T09:20:09.979Z,77.30
2018-03-23T09:22:36.916Z,77.70
2018-03-23T09:25:04.181Z,77.70
2018-03-23T09:27:31.124Z,77.70
2018-03-23T09:29:58.381Z,78.90
2018-03-23T09:32:25.690Z,78.70
2018-03-23T09:34:52.552Z,78.70
2018-03-23T09:37:19.567Z,78.80
2018-03-23T09:39:46.397Z,77.50
2018-03-23T09:42:13.245Z,77.80
2018-03-23T09:44:40.097Z,77.20
2018-03-23T09:47:07.072Z,76.80
2018-03-23T09:49:34.017Z,77.00
2018-03-23T09:52:00.978Z,76.20
2018-03-23T09:54:27.921Z,76.30
2018-03-23T09:56:54.773Z,75.60
2018-03-23T09:59:22.111Z,74.90
2018-03-23T10:01:49.396Z,75.20
2018-03-23T10:04:16.262Z,75.20
2018-03-23T10:06:43.150Z,75.60
2018-03-23T10:09:10.034Z,74.70
2018-03-23T10:11:37.033Z,74.50
2018-03-23T10:14:04.376Z,74.60
2018-03-23T10:16:31.693Z,74.40
2018-03-23T10:18:58.638Z,74.40
2018-03-23T10:21:25.510Z,74.70
2018-03-23T10:23:52.386Z,75.30
2018-03-23T10:26:19.240Z,75.10
2018-03-23T10:28:46.213Z,75.00
2018-03-23T10:31:13.100Z,74.50
2018-03-23T10:33:40.338Z,74.70
2018-03-23T10:36:07.218Z,74.70
2018-03-23T10:38:34.472Z,74.70
2018-03-23T10:41:01.784Z,74.30
2018-03-23T10:43:28.754Z,74.30
2018-03-23T10:45:55.613Z,74.20
2018-03-23T10:48:22.482Z,74.60
2018-03-23T10:50:49.328Z,74.70
2018-03-23T10:53:16.221Z,74.80
2018-03-23T10:55:43.138Z,74.60
2018-03-23T10:58:10.103Z,74.70
2018-03-23T11:00:37.083Z,74.40
2018-03-23T11:03:03.977Z,74.20
2018-03-23T11:05:31.256Z,74.30
2018-03-23T11:07:58.145Z,74.30
2018-03-23T11:10:24.997Z,74.70
2018-03-23T11:12:51.857Z,75.40
2018-03-23T11:15:18.738Z,75.80
2018-03-23T11:17:45.625Z,75.40
2018-03-23T11:20:12.525Z,75.40
2018-03-23T11:22:39.394Z,75.40
2018-03-23T11:25:06.354Z,76.10
2018-03-23T11:27:33.239Z,76.50
2018-03-23T11:30:00.142Z,76.40
2018-03-23T11:32:27.444Z,76.40
2018-03-23T11:34:54.400Z,76.40
2018-03-23T11:37:21.249Z,76.20
2018-03-23T11:39:48.130Z,76.30
2018-03-23T11:42:15.060Z,76.50
2018-03-23T11:44:42.016Z,76.40
2018-03-23T11:47:08.876Z,76.40
2018-03-23T11:49:35.773Z,76.60
2018-03-23T11:52:02.621Z,76.80
2018-03-23T11:54:29.505Z,77.30
2018-03-23T11:56:56.786Z,78.80
2018-03-23T11:59:24.091Z,79.30
2018-03-23T12:01:51.042Z,79.30
2018-03-23T12:04:17.918Z,79.70
2018-03-23T12:06:44.850Z,79.00
2018-03-23T12:09:11.833Z,78.10
2018-03-23T12:11:38.711Z,77.90
2018-03-23T12:14:05.554Z,77.80
2018-03-23T12:16:32.531Z,78.10
2018-03-23T12:18:59.456Z,77.90
2018-03-23T12:21:26.405Z,77.80
2018-03-23T12:23:53.281Z,77.30
2018-03-23T12:26:20.143Z,76.90
2018-03-23T12:28:47.003Z,76.90
2018-03-23T12:31:13.942Z,76.70
2018-03-23T12:33:40.802Z,76.90
2018-03-23T12:36:07.664Z,76.80
2018-03-23T12:38:34.617Z,77.10
2018-03-23T12:41:01.572Z,77.10
2018-03-23T12:43:28.432Z,77.60
2018-03-23T12:45:55.410Z,78.10
2018-03-23T12:48:22.358Z,78.50
2018-03-23T12:50:49.321Z,78.60
2018-03-23T12:53:16.277Z,79.00
2018-03-23T12:55:43.228Z,79.60
2018-03-23T12:58:10.129Z,79.90
2018-03-23T13:00:37.127Z,79.80
2018-03-23T13:03:04.440Z,79.90
2018-03-23T13:05:31.381Z,79.90
2018-03-23T13:07:58.236Z,79.70
2018-03-23T13:10:25.238Z,80.20
2018-03-23T13:12:52.098Z,80.30
2018-03-23T13:15:19.005Z,80.20
2018-03-23T13:17:45.973Z,80.10
2018-03-23T13:20:12.820Z,80.30
2018-03-23T13:22:39.772Z,80.10
2018-03-23T13:25:06.652Z,80.20
2018-03-23T13:27:33.588Z,80.40
2018-03-23T13:30:00.449Z,80.30
2018-03-23T13:32:27.413Z,80.30
2018-03-23T13:34:54.284Z,80.30
2018-03-23T13:37:21.233Z,80.70
2018-03-23T13:39:48.190Z,80.70
2018-03-23T13:42:15.050Z,80.60
2018-03-23T13:44:41.962Z,80.60
2018-03-23T13:47:08.941Z,80.60
2018-03-23T13:49:36.173Z,81.50
2018-03-23T13:52:03.089Z,81.50
2018-03-23T13:54:30.147Z,81.40
2018-03-23T13:56:57.090Z,80.90
2018-03-23T13:59:24.317Z,81.20
2018-03-23T14:01:51.225Z,81.20
2018-03-23T14:04:18.085Z,81.50
2018-03-23T14:06:44.945Z,81.50
2018-03-23T14:09:11.815Z,81.50
2018-03-23T14:11:38.743Z,81.10
2018-03-23T14:14:05.573Z,81.30
2018-03-23T14:16:32.836Z,82.60
2018-03-23T14:19:00.148Z,81.00
2018-03-23T14:21:27.018Z,81.00
2018-03-23T14:23:53.996Z,81.00
2018-03-23T14:26:20.868Z,80.90
2018-03-23T14:28:47.758Z,81.20
2018-03-23T14:31:15.036Z,81.60
2018-03-23T14:33:42.333Z,81.30
2018-03-23T14:36:09.273Z,81.30
2018-03-23T14:38:36.169Z,81.10
2018-03-23T14:41:03.013Z,81.10
2018-03-23T14:43:29.856Z,81.10
2018-03-23T14:45:56.717Z,80.80
2018-03-23T14:48:23.659Z,80.90
2018-03-23T14:50:50.586Z,80.90
2018-03-23T14:53:17.866Z,81.20
2018-03-23T14:55:44.724Z,81.20
2018-03-23T14:58:11.575Z,81.40
2018-03-23T15:00:38.454Z,81.20
2018-03-23T15:03:05.331Z,81.30
2018-03-23T15:05:32.214Z,81.50
2018-03-23T15:07:59.537Z,81.60
2018-03-23T15:10:26.897Z,81.60
2018-03-23T15:12:53.795Z,81.40
2018-03-23T15:15:20.732Z,81.50
2018-03-23T15:17:47.660Z,81.40
2018-03-23T15:20:14.892Z,80.90
2018-03-23T15:22:42.149Z,81.10
2018-03-23T15:25:09.234Z,81.10
2018-03-23T15:27:36.498Z,80.80
2018-03-23T15:30:03.350Z,80.80
2018-03-23T15:32:30.663Z,81.10
2018-03-23T15:34:57.707Z,81.10
2018-03-23T15:37:24.707Z,80.90
2018-03-23T15:39:51.680Z,80.70
2018-03-23T15:42:18.608Z,80.80
2018-03-23T15:44:45.584Z,80.70
2018-03-23T15:47:12.512Z,80.30
2018-03-23T15:49:39.402Z,80.20
2018-03-23T15:52:06.527Z,79.90
2018-03-23T15:54:33.831Z,79.80
2018-03-23T15:57:00.712Z,79.80
2018-03-23T15:59:27.609Z,79.60
2018-03-23T16:01:54.463Z,79.60
2018-03-23T16:04:21.370Z,79.40
2018-03-23T16:06:48.265Z,79.40
2018-03-23T16:09:15.583Z,78.90
2018-03-23T16:11:42.522Z,78.90
2018-03-23T16:14:09.477Z,78.90
2018-03-23T16:16:36.391Z,78.70
2018-03-23T16:19:03.328Z,78.60
2018-03-23T16:21:30.257Z,78.50
2018-03-23T16:23:57.217Z,78.40
2018-03-23T16:26:24.097Z,78.10
2018-03-23T16:28:51.083Z,78.00
2018-03-23T16:31:17.991Z,77.80
2018-03-23T16:33:44.833Z,76.60
2018-03-23T16:36:11.678Z,74.60
2018-03-23T16:38:38.563Z,74.50
2018-03-23T16:41:05.534Z,73.60
2018-03-23T16:43:32.411Z,72.90
2018-03-23T16:46:00.041Z,72.80
2018-03-23T16:48:26.906Z,73.00
2018-03-23T16:50:53.781Z,73.30
2018-03-23T16:53:20.716Z,72.60
2018-03-23T16:55:47.594Z,72.50
2018-03-23T16:58:14.450Z,72.20
2018-03-23T17:00:41.334Z,71.90
2018-03-23T17:03:08.261Z,72.10
2018-03-23T17:05:35.217Z,72.50
2018-03-23T17:08:02.086Z,72.20
2018-03-23T17:10:28.930Z,72.20
2018-03-23T17:12:55.801Z,72.60
2018-03-23T17:15:22.660Z,72.80
2018-03-23T17:17:49.607Z,73.00
2018-03-23T17:20:16.556Z,73.30
2018-03-23T17:22:43.438Z,73.50
2018-03-23T17:25:10.296Z,73.50
2018-03-23T17:27:37.244Z,72.90
2018-03-23T17:30:04.106Z,72.60
2018-03-23T17:32:31.044Z,73.00
2018-03-23T17:34:57.904Z,72.90
2018-03-23T17:37:24.769Z,73.20
2018-03-23T17:39:51.640Z,72.50
2018-03-23T17:42:18.484Z,73.10
2018-03-23T17:44:45.442Z,73.20
2018-03-23T17:47:12.272Z,72.90
2018-03-23T17:49:39.142Z,73.00
2018-03-23T17:52:06.026Z,72.80
2018-03-23T17:54:33.074Z,73.10
2018-03-23T17:56:59.934Z,72.80
2018-03-23T17:59:26.884Z,73.10
2018-03-23T18:01:53.759Z,72.90
2018-03-23T18:04:20.601Z,72.60
2018-03-23T18:06:47.470Z,72.90
2018-03-23T18:09:14.404Z,72.90
2018-03-23T18:11:41.362Z,72.90
2018-03-23T18:14:08.229Z,73.00
2018-03-23T18:16:35.161Z,73.00
2018-03-23T18:19:02.443Z,73.10
2018-03-23T18:21:29.313Z,73.10
2018-03-23T18:23:56.168Z,72.90
2018-03-23T18:26:23.147Z,73.00
2018-03-23T18:28:50.086Z,73.10
2018-03-23T18:31:16.988Z,72.90
2018-03-23T18:33:43.898Z,72.70
2018-03-23T18:36:10.756Z,73.00
2018-03-23T18:38:37.630Z,72.80
2018-03-23T18:41:04.482Z,73.20
2018-03-23T18:43:31.348Z,73.20
2018-03-23T18:45:58.200Z,73.10
2018-03-23T18:48:25.073Z,73.20
2018-03-23T18:50:51.987Z,73.20
2018-03-23T18:53:18.844Z,73.30
2018-03-23T18:55:45.704Z,73.10
2018-03-23T18:58:12.561Z,73.10
2018-03-23T19:00:39.633Z,73.30
2018-03-23T19:03:06.565Z,73.40
2018-03-23T19:05:33.817Z,73.40
2018-03-23T19:08:01.120Z,73.50
2018-03-23T19:10:28.082Z,73.50
2018-03-23T19:12:54.937Z,73.60
2018-03-23T19:15:21.811Z,73.60
2018-03-23T19:17:48.745Z,73.70
2018-03-23T19:20:15.597Z,73.80
2018-03-23T19:22:42.462Z,73.90
2018-03-23T19:25:09.349Z,73.60
2018-03-23T19:27:36.221Z,73.70
2018-03-23T19:30:03.202Z,73.70
2018-03-23T19:32:30.089Z,73.60
2018-03-23T19:34:56.972Z,73.60
2018-03-23T19:37:23.912Z,73.60
2018-03-23T19:39:50.861Z,73.60
2018-03-23T19:42:17.734Z,73.50
2018-03-23T19:44:44.610Z,73.70
2018-03-23T19:47:11.557Z,73.90
2018-03-23T19:49:38.516Z,73.90
2018-03-23T19:52:05.384Z,74.20
2018-03-23T19:54:32.230Z,74.30
2018-03-23T19:56:59.169Z,74.30
2018-03-23T19:59:26.036Z,74.20
2018-03-23T20:01:52.890Z,74.60
2018-03-23T20:04:19.855Z,75.10
2018-03-23T20:06:46.755Z,74.90
2018-03-23T20:09:13.594Z,75.10
2018-03-23T20:11:40.521Z,75.40
2018-03-23T20:14:07.389Z,75.10
2018-03-23T20:16:34.268Z,75.30
2018-03-23T20:19:01.133Z,75.90
2018-03-23T20:21:28.599Z,76.30
2018-03-23T20:23:55.462Z,76.30
2018-03-23T20:26:22.309Z,76.20
2018-03-23T20:28:49.222Z,76.30
2018-03-23T20:31:16.457Z,76.00
2018-03-23T20:33:43.777Z,75.80
2018-03-23T20:36:10.638Z,75.80
2018-03-23T20:38:37.586Z,76.20
2018-03-23T20:41:04.434Z,76.80
2018-03-23T20:43:31.397Z,76.70
2018-03-23T20:45:58.266Z,77.10
2018-03-23T20:48:25.215Z,77.20
2018-03-23T20:50:52.177Z,77.30
2018-03-23T20:53:19.129Z,77.10
2018-03-23T20:55:46.002Z,77.20
2018-03-23T20:58:12.961Z,77.70
2018-03-23T21:00:39.838Z,77.90
2018-03-23T21:03:06.713Z,78.20
2018-03-23T21:05:33.988Z,78.90
2018-03-23T21:08:01.265Z,78.70
2018-03-23T21:10:28.117Z,78.70
2018-03-23T21:12:55.453Z,79.40
2018-03-23T21:15:22.331Z,79.40
2018-03-23T21:17:49.658Z,79.40
2018-03-23T21:20:16.526Z,79.40
2018-03-23T21:22:43.440Z,79.60
2018-03-23T21:25:10.320Z,79.90
2018-03-23T21:27:37.185Z,79.80
2018-03-23T21:30:04.117Z,79.70
2018-03-23T21:32:30.980Z,80.00
2018-03-23T21:34:57.893Z,80.50
2018-03-23T21:37:24.760Z,81.10
2018-03-23T21:39:52.006Z,81.00
2018-03-23T21:42:18.929Z,81.00
2018-03-23T21:44:45.908Z,81.10
2018-03-23T21:47:12.758Z,81.10
2018-03-23T21:49:39.641Z,80.90
2018-03-23T21:52:06.506Z,80.80
2018-03-23T21:54:33.490Z,80.80
2018-03-23T21:57:00.376Z,80.70
2018-03-23T21:59:27.260Z,80.30
2018-03-23T22:01:54.193Z,79.70
2018-03-23T22:04:21.141Z,79.60
2018-03-23T22:06:48.005Z,80.10
2018-03-23T22:09:14.869Z,80.60
2018-03-23T22:11:41.736Z,81.10
2018-03-23T22:14:08.687Z,81.10
2018-03-23T22:16:35.546Z,81.00
2018-03-23T22:19:02.489Z,80.80
2018-03-23T22:21:29.354Z,80.80
2018-03-23T22:23:56.231Z,80.90
2018-03-23T22:26:23.096Z,81.20
2018-03-23T22:28:50.030Z,81.10
2018-03-23T22:31:16.881Z,81.10
2018-03-23T22:33:43.748Z,81.10
2018-03-23T22:36:10.741Z,81.00
2018-03-23T22:38:37.638Z,81.00
2018-03-23T22:41:04.867Z,81.10
2018-03-23T22:43:31.877Z,81.10
2018-03-23T22:45:59.251Z,80.80
2018-03-23T22:48:26.099Z,80.50
2018-03-23T22:50:52.986Z,80.50
2018-03-23T22:53:19.849Z,80.30
2018-03-23T22:55:46.724Z,80.20
2018-03-23T22:58:13.627Z,80.10
2018-03-23T23:00:40.474Z,80.30
2018-03-23T23:03:07.445Z,80.50
2018-03-23T23:05:34.409Z,80.70
2018-03-23T23:08:01.309Z,80.70
2018-03-23T23:10:28.255Z,80.70
2018-03-23T23:12:55.142Z,80.80
2018-03-23T23:15:22.405Z,80.80
2018-03-23T23:17:49.252Z,80.80
2018-03-23T23:20:16.136Z,80.70
2018-03-23T23:22:43.390Z,80.80
2018-03-23T23:25:10.635Z,80.90
2018-03-23T23:27:37.531Z,80.90
2018-03-23T23:30:04.419Z,80.80
2018-03-23T23:32:31.277Z,80.80
2018-03-23T23:34:58.154Z,80.70
2018-03-23T23:37:25.021Z,81.00
2018-03-23T23:39:51.873Z,81.30
2018-03-23T23:42:18.797Z,81.40
2018-03-23T23:44:45.815Z,81.60
2018-03-23T23:47:12.680Z,81.50
2018-03-23T23:49:39.999Z,81.20
2018-03-23T23:52:06.954Z,81.20
2018-03-23T23:54:33.853Z,81.30
2018-03-23T23:57:00.722Z,81.30
2018-03-23T23:59:27.999Z,81.10
